createdAt,value
2019-02-21T00:03:37.983Z,19.97
2019-02-21T00:08:22.678Z,22.60
2019-02-21T00:13:07.228Z,16.20
2019-02-21T00:17:51.797Z,22.77
2019-02-21T00:22:36.330Z,18.47
2019-02-21T00:27:20.898Z,16.07
2019-02-21T00:32:05.534Z,21.30
2019-02-21T00:36:50.158Z,19.53
2019-02-21T00:41:35.012Z,17.87
2019-02-21T00:46:19.618Z,18.77
2019-02-21T00:51:04.130Z,16.20
2019-02-21T00:55:48.821Z,14.77
2019-02-21T01:00:33.435Z,20.60
2019-02-21T01:05:17.908Z,17.90
2019-02-21T01:10:02.516Z,14.53
2019-02-21T01:14:47.242Z,16.67
2019-02-21T01:19:32.060Z,21.47
2019-02-21T01:24:17.007Z,18.53
2019-02-21T01:29:01.878Z,19.23
2019-02-21T01:33:46.852Z,16.70
2019-02-21T01:38:31.524Z,16.47
2019-02-21T01:43:16.398Z,15.30
2019-02-21T01:48:01.012Z,14.27
2019-02-21T01:52:45.730Z,17.87
2019-02-21T01:57:30.380Z,17.87
2019-02-21T02:02:15.141Z,14.83
2019-02-21T02:06:59.987Z,16.07
2019-02-21T02:11:44.659Z,18.10
2019-02-21T02:16:29.114Z,21.37
2019-02-21T02:21:14.110Z,15.67
2019-02-21T02:25:58.822Z,16.50
2019-02-21T02:30:43.447Z,14.53
2019-02-21T02:35:27.992Z,23.03
2019-02-21T02:40:12.523Z,19.30
2019-02-21T02:44:57.131Z,17.73
2019-02-21T02:49:41.718Z,18.63
2019-02-21T02:54:26.485Z,17.83
2019-02-21T02:59:10.940Z,20.70
2019-02-21T03:03:55.488Z,15.93
2019-02-21T03:08:40.158Z,21.50
2019-02-21T03:13:24.934Z,19.77
2019-02-21T03:18:09.428Z,18.13
2019-02-21T03:22:54.088Z,21.43
2019-02-21T03:27:38.643Z,17.83
2019-02-21T03:32:23.359Z,19.53
2019-02-21T03:37:07.851Z,20.47
2019-02-21T03:41:52.351Z,19.67
2019-02-21T03:46:36.861Z,17.07
2019-02-21T03:51:21.440Z,22.37
2019-02-21T03:56:05.927Z,19.33
2019-02-21T04:00:50.792Z,20.70
2019-02-21T04:05:35.368Z,21.30
2019-02-21T04:10:19.962Z,22.47
2019-02-21T04:15:05.352Z,20.43
2019-02-21T04:19:49.964Z,20.60
2019-02-21T04:24:34.804Z,18.80
2019-02-21T04:29:19.329Z,18.73
2019-02-21T04:34:03.833Z,19.07
2019-02-21T04:38:48.500Z,19.60
2019-02-21T04:43:33.160Z,18.00
2019-02-21T04:48:17.620Z,18.47
2019-02-21T04:53:02.239Z,20.23
2019-02-21T04:57:46.750Z,18.47
2019-02-21T05:02:31.407Z,19.57
2019-02-21T05:07:15.876Z,19.53
2019-02-21T05:12:00.416Z,17.43
2019-02-21T05:16:44.974Z,18.83
2019-02-21T05:21:29.664Z,20.97
2019-02-21T05:26:17.557Z,18.83
2019-02-21T05:31:12.078Z,18.23
2019-02-21T05:36:21.654Z,19.73
2019-02-21T05:41:16.675Z,18.13
2019-02-21T05:46:20.136Z,18.60
2019-02-21T05:51:14.272Z,17.53
2019-02-21T05:56:17.068Z,18.30
2019-02-21T06:01:23.314Z,18.73
2019-02-21T06:06:39.183Z,19.27
2019-02-21T06:11:28.520Z,20.57
2019-02-21T06:16:33.004Z,19.77
2019-02-21T06:21:35.258Z,19.50
2019-02-21T06:26:39.466Z,19.50
2019-02-21T06:31:23.600Z,18.23
2019-02-21T06:36:08.110Z,19.83
2019-02-21T06:40:52.783Z,20.57
2019-02-21T06:45:37.415Z,19.27
2019-02-21T06:50:26.707Z,22.23
2019-02-21T06:55:08.082Z,18.90
2019-02-21T06:59:52.639Z,22.73
2019-02-21T07:04:37.201Z,20.63
2019-02-21T07:09:21.918Z,20.13
2019-02-21T07:14:06.531Z,19.17
2019-02-21T07:18:51.211Z,23.33
2019-02-21T07:23:43.177Z,20.00
2019-02-21T07:28:22.171Z,20.40
2019-02-21T07:33:06.683Z,24.90
2019-02-21T07:37:51.225Z,23.70
2019-02-21T07:42:35.858Z,23.77
2019-02-21T07:47:20.446Z,20.93
2019-02-21T07:52:05.605Z,19.80
2019-02-21T07:56:50.362Z,20.67
2019-02-21T08:01:35.186Z,22.37
2019-02-21T08:06:20.328Z,21.30
2019-02-21T08:11:07.040Z,22.37
2019-02-21T08:15:51.163Z,23.33
2019-02-21T08:20:40.606Z,22.90
2019-02-21T08:25:22.037Z,23.27
2019-02-21T08:30:07.863Z,21.97
2019-02-21T08:34:53.345Z,21.33
2019-02-21T08:39:38.042Z,25.00
2019-02-21T08:44:22.558Z,25.10
2019-02-21T08:49:07.151Z,24.57
2019-02-21T08:53:51.858Z,22.07
2019-02-21T08:58:36.498Z,21.80
2019-02-21T09:03:21.113Z,23.43
2019-02-21T09:08:05.723Z,21.77
2019-02-21T09:12:50.536Z,24.63
2019-02-21T09:17:35.080Z,23.57
2019-02-21T09:22:19.641Z,24.63
2019-02-21T09:27:04.205Z,27.03
2019-02-21T09:31:48.750Z,25.03
2019-02-21T09:36:33.328Z,22.40
2019-02-21T09:41:17.900Z,30.43
2019-02-21T09:46:02.485Z,24.27
2019-02-21T09:50:47.057Z,27.73
2019-02-21T09:55:31.608Z,26.20
2019-02-21T10:00:17.872Z,26.90
2019-02-21T10:05:05.329Z,24.63
2019-02-21T10:09:49.013Z,23.07
2019-02-21T10:14:33.553Z,24.60
2019-02-21T10:19:18.154Z,24.00
2019-02-21T10:24:02.718Z,21.67
2019-02-21T10:28:47.245Z,23.17
2019-02-21T10:33:31.832Z,25.30
2019-02-21T10:38:16.447Z,24.93
2019-02-21T10:43:01.267Z,21.70
2019-02-21T10:47:45.896Z,21.40
2019-02-21T10:52:30.567Z,22.97
2019-02-21T10:57:15.031Z,22.53
2019-02-21T11:01:59.648Z,23.40
2019-02-21T11:06:44.212Z,26.07
2019-02-21T11:11:29.046Z,22.33
2019-02-21T11:17:26.626Z,24.30
2019-02-21T11:22:11.412Z,24.60
2019-02-21T11:26:55.909Z,21.67
2019-02-21T11:31:40.543Z,24.10
2019-02-21T11:36:25.272Z,23.87
2019-02-21T11:41:09.791Z,20.23
2019-02-21T11:45:57.360Z,24.93
2019-02-21T11:50:40.639Z,21.27
2019-02-21T11:55:25.189Z,23.30
2019-02-21T12:00:15.809Z,22.23
2019-02-21T12:05:00.469Z,22.33
2019-02-21T12:09:45.250Z,23.20
2019-02-21T12:14:29.806Z,24.03
2019-02-21T12:19:14.331Z,20.47
2019-02-21T12:23:58.865Z,22.00
2019-02-21T12:28:43.513Z,21.83
2019-02-21T12:33:28.053Z,19.30
2019-02-21T12:38:12.576Z,22.83
2019-02-21T12:42:57.132Z,18.73
2019-02-21T12:47:49.614Z,20.43
2019-02-21T12:52:28.050Z,19.50
2019-02-21T12:57:12.691Z,16.97
2019-02-21T13:01:57.333Z,17.53
2019-02-21T13:06:41.949Z,16.30
2019-02-21T13:11:26.468Z,14.57
2019-02-21T13:16:11.103Z,14.50
2019-02-21T13:20:55.705Z,16.40
2019-02-21T13:25:40.375Z,13.97
2019-02-21T13:30:24.971Z,16.13
2019-02-21T13:35:09.917Z,14.47
2019-02-21T13:39:54.455Z,16.37
2019-02-21T13:44:39.362Z,15.10
2019-02-21T13:49:23.957Z,16.17
2019-02-21T13:54:08.637Z,16.27
2019-02-21T13:58:53.274Z,16.30
2019-02-21T14:03:38.149Z,16.60
2019-02-21T14:08:22.735Z,15.33
2019-02-21T14:13:07.411Z,14.33
2019-02-21T14:17:52.052Z,16.40
2019-02-21T14:22:36.709Z,16.53
2019-02-21T14:27:21.332Z,19.50
2019-02-21T14:32:05.992Z,17.43
2019-02-21T14:36:50.469Z,21.77
2019-02-21T14:41:35.194Z,18.30
2019-02-21T14:46:19.771Z,19.13
2019-02-21T14:51:04.349Z,18.23
2019-02-21T14:55:48.859Z,20.10
2019-02-21T15:00:33.485Z,20.27
2019-02-21T15:05:18.691Z,17.43
2019-02-21T15:10:04.557Z,16.87
2019-02-21T15:14:49.188Z,17.80
2019-02-21T15:19:33.807Z,17.10
2019-02-21T15:24:18.587Z,17.67
2019-02-21T15:29:03.167Z,20.07
2019-02-21T15:33:47.771Z,19.43
2019-02-21T15:38:32.395Z,17.57
2019-02-21T15:43:16.931Z,20.57
2019-02-21T15:48:01.583Z,20.17
2019-02-21T15:52:46.227Z,18.73
2019-02-21T15:57:30.746Z,18.63
2019-02-21T16:02:15.376Z,19.30
2019-02-21T16:06:59.972Z,19.33
2019-02-21T16:11:44.783Z,19.60
2019-02-21T16:16:29.790Z,19.23
2019-02-21T16:21:14.611Z,19.43
2019-02-21T16:25:59.148Z,18.97
2019-02-21T16:30:43.890Z,16.40
2019-02-21T16:35:28.465Z,20.13
2019-02-21T16:40:13.821Z,17.43
2019-02-21T16:44:58.528Z,17.60
2019-02-21T16:49:43.283Z,15.53
2019-02-21T16:54:27.853Z,15.33
2019-02-21T16:59:12.584Z,17.20
2019-02-21T17:03:57.369Z,16.60
2019-02-21T17:08:42.060Z,17.00
2019-02-21T17:13:26.604Z,13.60
2019-02-21T17:18:11.215Z,13.10
2019-02-21T17:22:56.088Z,15.70
2019-02-21T17:27:40.751Z,14.23
2019-02-21T17:32:25.616Z,15.03
2019-02-21T17:37:10.368Z,13.33
2019-02-21T17:41:54.987Z,13.80
2019-02-21T17:46:39.747Z,13.83
2019-02-21T17:51:24.425Z,11.53
2019-02-21T17:56:09.446Z,12.23
2019-02-21T18:00:54.168Z,16.37
2019-02-21T18:05:39.080Z,14.57
2019-02-21T18:10:23.799Z,13.00
2019-02-21T18:15:09.157Z,16.43
2019-02-21T18:19:53.894Z,15.43
2019-02-21T18:24:38.509Z,16.80
2019-02-21T18:29:23.117Z,18.20
2019-02-21T18:34:08.023Z,17.63
2019-02-21T18:38:52.875Z,21.57
2019-02-21T18:43:37.804Z,20.27
2019-02-21T18:48:22.564Z,23.63
2019-02-21T18:53:07.278Z,26.30
2019-02-21T18:57:51.846Z,25.50
2019-02-21T19:02:36.410Z,26.13
2019-02-21T19:07:21.321Z,26.23
2019-02-21T19:12:05.968Z,25.20
2019-02-21T19:16:50.591Z,22.67
2019-02-21T19:21:35.278Z,26.27
2019-02-21T19:26:20.013Z,25.17
2019-02-21T19:31:08.974Z,25.40
2019-02-21T19:35:53.713Z,21.97
2019-02-21T19:40:38.335Z,28.30
2019-02-21T19:45:23.007Z,26.90
2019-02-21T19:50:08.244Z,25.70
2019-02-21T19:54:52.831Z,24.97
2019-02-21T19:59:37.641Z,25.87
2019-02-21T20:04:25.815Z,31.90
2019-02-21T20:09:12.537Z,28.60
2019-02-21T20:13:57.393Z,27.90
2019-02-21T20:18:42.051Z,30.03
2019-02-21T20:23:26.783Z,31.37
2019-02-21T20:28:45.653Z,33.70
2019-02-21T20:34:00.507Z,30.00
2019-02-21T20:39:14.081Z,34.80
2019-02-21T20:43:59.185Z,31.87
2019-02-21T20:48:43.814Z,32.07
2019-02-21T20:53:31.581Z,30.97
2019-02-21T20:58:16.397Z,33.37
2019-02-21T21:03:04.153Z,32.73
2019-02-21T21:07:51.438Z,33.40
2019-02-21T21:12:36.142Z,40.03
2019-02-21T21:17:20.897Z,34.57
2019-02-21T21:22:05.542Z,38.10
2019-02-21T21:26:50.385Z,43.17
2019-02-21T21:31:35.218Z,48.23
2019-02-21T21:36:20.344Z,47.50
2019-02-21T21:41:05.212Z,40.23
2019-02-21T21:45:49.916Z,44.57
2019-02-21T21:50:34.944Z,44.10
2019-02-21T21:55:22.322Z,44.87
2019-02-21T22:00:09.247Z,48.73
2019-02-21T22:04:53.869Z,46.57
2019-02-21T22:09:38.743Z,45.13
2019-02-21T22:14:23.540Z,49.43
2019-02-21T22:19:08.532Z,50.07
2019-02-21T22:23:53.244Z,50.63
2019-02-21T22:28:38.167Z,53.77
2019-02-21T22:33:22.989Z,55.53
2019-02-21T22:38:07.813Z,58.77
2019-02-21T22:42:52.885Z,57.37
2019-02-21T22:47:37.755Z,59.07
2019-02-21T22:52:22.550Z,51.30
2019-02-21T22:57:07.275Z,54.47
2019-02-21T23:01:52.807Z,48.83
2019-02-21T23:06:45.281Z,54.00
2019-02-21T23:11:30.265Z,52.93
2019-02-21T23:16:14.937Z,49.27
2019-02-21T23:20:59.733Z,48.40
2019-02-21T23:25:46.127Z,47.30
2019-02-21T23:30:30.949Z,48.47
2019-02-21T23:35:19.402Z,52.80
2019-02-21T23:40:04.207Z,51.30
2019-02-21T23:44:48.784Z,51.17
2019-02-21T23:49:33.421Z,53.63
2019-02-21T23:54:17.985Z,49.30
2019-02-21T23:59:02.747Z,45.90
